KDRO/DRO METAR and TAF weather

Enter ICAO airport designator
Station Type Date Time Source
KDRO METAR 2018/01/19 16:53 UTC NOAA

KDRO 191653Z AUTO 09004KT 10SM CLR 01/M07 A3015 RMK AO2 SLP236 T00061067


Station Type Date Time Source
KDRO Decoded METAR 2018/01/19 16:53 UTC NOAA

DURANGO-LA PLATA COUNTY AIRPORT , CO, United States (KDRO) 37-09N 107-46W 2035M
Jan 19, 2018 - 11:53 AM EST / 2018.01.19 1653 UTC
Wind: from the E (090 degrees) at 5 MPH (4 KT):0
Visibility: 10 mile(s):0
Sky conditions: clear
Temperature: 33.1 F (0.6 C)
Windchill: 28 F (-2 C):1
Dew Point: 19.9 F (-6.7 C)
Relative Humidity: 58%
Pressure (altimeter): 30.15 in. Hg (1020 hPa)
ob: KDRO 191653Z AUTO 09004KT 10SM CLR 01/M07 A3015 RMK AO2 SLP236 T00061067
cycle: 17

Station Type Date Time Source
KDRO TAF 2018/01/19 18:30 UTC NOAA

TAF KDRO 191728Z 1918/2018 09004KT P6SM SCT250
FM192000 18007KT P6SM SCT140 BKN200
FM200300 03004KT P6SM SCT090 BKN200
FM201700 11007KT P6SM BKN070 BKN090


Example: see airport list